createdAt,value
2022-10-01T00:00:56.000Z,16000.0
2022-10-01T00:01:56.000Z,16000.0
2022-10-01T00:02:55.000Z,16000.0
2022-10-01T00:03:56.000Z,16000.0
2022-10-01T00:04:55.000Z,16000.0
2022-10-01T00:05:56.000Z,16000.0
2022-10-01T00:06:56.000Z,16000.0
2022-10-01T00:07:55.000Z,16000.0
2022-10-01T00:08:56.000Z,16000.0
2022-10-01T00:09:56.000Z,16000.0
2022-10-01T00:10:56.000Z,16000.0
2022-10-01T00:11:56.000Z,16000.0
2022-10-01T00:12:55.000Z,16000.0
2022-10-01T00:13:56.000Z,16000.0
2022-10-01T00:14:56.000Z,16000.0
2022-10-01T00:15:55.000Z,16000.0
2022-10-01T00:16:56.000Z,16000.0
2022-10-01T00:17:55.000Z,16000.0
2022-10-01T00:18:56.000Z,16000.0
2022-10-01T00:19:56.000Z,16000.0
2022-10-01T00:20:55.000Z,16000.0
2022-10-01T00:21:56.000Z,16000.0
2022-10-01T00:22:55.000Z,16000.0
2022-10-01T00:23:56.000Z,16000.0
2022-10-01T00:24:56.000Z,16000.0
2022-10-01T00:25:55.000Z,16000.0
2022-10-01T00:26:56.000Z,16000.0
2022-10-01T00:27:56.000Z,16000.0
2022-10-01T00:28:55.000Z,16000.0
2022-10-01T00:29:56.000Z,16000.0
2022-10-01T00:30:55.000Z,16000.0
2022-10-01T00:31:56.000Z,16000.0
2022-10-01T00:32:56.000Z,16000.0
2022-10-01T00:33:55.000Z,16000.0
2022-10-01T00:34:56.000Z,16000.0
2022-10-01T00:35:56.000Z,16000.0
2022-10-01T00:36:55.000Z,16000.0
2022-10-01T00:37:56.000Z,16000.0
2022-10-01T00:38:55.000Z,16000.0
2022-10-01T00:39:56.000Z,16000.0
2022-10-01T00:40:56.000Z,16000.0
2022-10-01T00:41:55.000Z,16000.0
2022-10-01T00:42:56.000Z,16000.0
2022-10-01T00:43:55.000Z,16000.0
2022-10-01T00:44:56.000Z,16000.0
2022-10-01T00:45:56.000Z,16000.0
2022-10-01T00:46:55.000Z,16000.0
2022-10-01T00:47:56.000Z,16000.0
2022-10-01T00:48:56.000Z,16000.0
2022-10-01T00:49:56.000Z,16000.0
2022-10-01T00:50:56.000Z,16000.0
2022-10-01T00:51:55.000Z,16000.0
2022-10-01T00:52:56.000Z,16000.0
2022-10-01T00:53:56.000Z,16000.0
2022-10-01T00:54:55.000Z,16000.0
2022-10-01T00:55:56.000Z,16000.0
2022-10-01T00:56:56.000Z,16000.0
2022-10-01T00:57:55.000Z,16000.0
2022-10-01T00:58:56.000Z,16000.0
2022-10-01T00:59:55.000Z,16000.0
2022-10-01T01:00:56.000Z,16000.0
2022-10-01T01:01:56.000Z,16000.0
2022-10-01T01:02:55.000Z,16000.0
2022-10-01T01:03:56.000Z,16000.0
2022-10-01T01:04:56.000Z,16000.0
2022-10-01T01:05:55.000Z,16000.0
2022-10-01T01:06:56.000Z,16000.0
2022-10-01T01:07:55.000Z,16000.0
2022-10-01T01:08:56.000Z,16000.0
2022-10-01T01:09:56.000Z,16000.0
2022-10-01T01:10:55.000Z,16000.0
2022-10-01T01:11:56.000Z,16000.0
2022-10-01T01:12:56.000Z,16000.0
2022-10-01T01:13:55.000Z,16000.0
2022-10-01T01:14:56.000Z,16000.0
2022-10-01T01:15:55.000Z,16000.0
2022-10-01T01:16:56.000Z,16000.0
2022-10-01T01:17:56.000Z,16000.0
2022-10-01T01:18:55.000Z,16000.0
2022-10-01T01:19:56.000Z,16000.0
2022-10-01T01:20:55.000Z,16000.0
2022-10-01T01:21:56.000Z,16000.0
2022-10-01T01:22:56.000Z,16000.0
2022-10-01T01:23:55.000Z,16000.0
2022-10-01T01:24:56.000Z,16000.0
2022-10-01T01:25:56.000Z,16000.0
2022-10-01T01:26:55.000Z,16000.0
2022-10-01T01:27:56.000Z,16000.0
2022-10-01T01:28:55.000Z,16000.0
2022-10-01T01:29:56.000Z,16000.0
2022-10-01T01:30:56.000Z,16000.0
2022-10-01T01:31:55.000Z,16000.0
2022-10-01T01:32:56.000Z,16000.0
2022-10-01T01:33:55.000Z,16000.0
2022-10-01T01:34:56.000Z,16000.0
2022-10-01T01:35:56.000Z,16000.0
2022-10-01T01:36:55.000Z,16000.0
2022-10-01T01:37:56.000Z,16000.0
2022-10-01T01:38:56.000Z,16000.0
2022-10-01T01:39:55.000Z,16000.0
2022-10-01T01:40:56.000Z,16000.0
2022-10-01T01:41:55.000Z,16000.0
2022-10-01T01:42:56.000Z,16000.0
2022-10-01T01:43:56.000Z,16000.0
2022-10-01T01:44:55.000Z,16000.0
2022-10-01T01:45:56.000Z,16000.0
2022-10-01T01:46:56.000Z,16000.0
2022-10-01T01:47:55.000Z,16000.0
2022-10-01T01:48:56.000Z,16000.0
2022-10-01T01:49:55.000Z,16000.0
2022-10-01T01:50:56.000Z,16000.0
2022-10-01T01:51:56.000Z,16000.0
2022-10-01T01:52:55.000Z,16000.0
2022-10-01T01:53:56.000Z,16000.0
2022-10-01T01:54:55.000Z,16000.0
2022-10-01T01:55:56.000Z,16000.0
2022-10-01T01:56:56.000Z,16000.0
2022-10-01T01:57:55.000Z,16000.0
2022-10-01T01:58:56.000Z,16000.0
2022-10-01T01:59:56.000Z,16000.0
2022-10-01T02:00:55.000Z,16000.0
2022-10-01T02:01:56.000Z,16000.0
2022-10-01T02:02:56.000Z,16000.0
2022-10-01T02:03:55.000Z,16000.0
2022-10-01T02:04:56.000Z,16000.0
2022-10-01T02:05:55.000Z,16000.0
2022-10-01T02:06:56.000Z,16000.0
2022-10-01T02:07:56.000Z,16000.0
2022-10-01T02:08:55.000Z,16000.0
2022-10-01T02:09:56.000Z,16000.0
2022-10-01T02:10:55.000Z,16000.0
2022-10-01T02:11:56.000Z,16000.0
2022-10-01T02:12:56.000Z,16000.0
2022-10-01T02:13:55.000Z,16000.0
2022-10-01T02:14:56.000Z,16000.0
2022-10-01T02:15:56.000Z,16000.0
2022-10-01T02:16:55.000Z,16000.0
2022-10-01T02:17:56.000Z,16000.0
2022-10-01T02:18:55.000Z,16000.0
2022-10-01T02:19:56.000Z,16000.0
2022-10-01T02:20:56.000Z,16000.0
2022-10-01T02:21:55.000Z,16000.0
2022-10-01T02:22:56.000Z,16000.0
2022-10-01T02:23:56.000Z,16000.0
2022-10-01T02:24:55.000Z,16000.0
2022-10-01T02:25:56.000Z,16000.0
2022-10-01T02:26:55.000Z,16000.0
2022-10-01T02:27:56.000Z,16000.0
2022-10-01T02:28:56.000Z,16000.0
2022-10-01T02:29:55.000Z,16000.0
2022-10-01T02:30:56.000Z,16000.0
2022-10-01T02:31:55.000Z,16000.0
2022-10-01T02:32:56.000Z,16000.0
2022-10-01T02:33:56.000Z,16000.0
2022-10-01T02:34:55.000Z,16000.0
2022-10-01T02:35:56.000Z,16000.0
2022-10-01T02:36:56.000Z,16000.0
2022-10-01T02:37:55.000Z,16000.0
2022-10-01T02:38:56.000Z,16000.0
2022-10-01T02:39:55.000Z,16000.0
2022-10-01T02:40:56.000Z,16000.0
2022-10-01T02:41:56.000Z,16000.0
2022-10-01T02:42:55.000Z,16000.0
2022-10-01T02:43:56.000Z,16000.0
2022-10-01T02:44:55.000Z,16000.0
2022-10-01T02:45:56.000Z,16000.0
2022-10-01T02:46:56.000Z,16000.0
2022-10-01T02:47:55.000Z,16000.0
2022-10-01T02:48:56.000Z,16000.0
2022-10-01T02:49:56.000Z,16000.0
2022-10-01T02:50:55.000Z,16000.0
2022-10-01T02:51:56.000Z,16000.0
2022-10-01T02:52:55.000Z,16000.0
2022-10-01T02:53:56.000Z,16000.0
2022-10-01T02:54:56.000Z,16000.0
2022-10-01T02:55:55.000Z,16000.0
2022-10-01T02:56:56.000Z,16000.0
2022-10-01T02:57:56.000Z,16000.0
2022-10-01T02:58:56.000Z,16000.0
2022-10-01T02:59:56.000Z,16000.0
2022-10-01T03:00:55.000Z,16000.0
2022-10-01T03:01:56.000Z,16000.0
2022-10-01T03:02:56.000Z,16000.0
2022-10-01T03:03:55.000Z,16000.0
2022-10-01T03:04:56.000Z,16000.0
2022-10-01T03:05:55.000Z,16000.0
2022-10-01T03:06:56.000Z,16000.0
2022-10-01T03:07:56.000Z,16000.0
2022-10-01T03:08:55.000Z,16000.0
2022-10-01T03:09:56.000Z,16000.0
2022-10-01T03:10:55.000Z,16000.0
2022-10-01T03:11:56.000Z,16000.0
2022-10-01T03:12:56.000Z,16000.0
2022-10-01T03:13:55.000Z,16000.0
2022-10-01T03:14:56.000Z,16000.0
2022-10-01T03:15:56.000Z,16000.0
2022-10-01T03:16:55.000Z,16000.0
2022-10-01T03:17:56.000Z,16000.0
2022-10-01T03:18:55.000Z,16000.0
2022-10-01T03:19:56.000Z,16000.0
2022-10-01T03:20:56.000Z,15425.0
2022-10-01T03:21:55.000Z,15011.0
2022-10-01T03:22:56.000Z,15478.0
2022-10-01T03:23:55.000Z,15367.0
2022-10-01T03:24:56.000Z,13526.0
2022-10-01T03:25:56.000Z,13485.0
2022-10-01T03:26:55.000Z,14061.0
2022-10-01T03:27:56.000Z,13293.0
2022-10-01T03:28:56.000Z,13804.0
2022-10-01T03:29:55.000Z,12845.0
2022-10-01T03:30:56.000Z,12133.0
2022-10-01T03:31:55.000Z,12237.0
2022-10-01T03:32:56.000Z,13678.0
2022-10-01T03:33:56.000Z,14750.0
2022-10-01T03:34:55.000Z,14202.0
2022-10-01T03:35:56.000Z,15015.0
2022-10-01T03:36:55.000Z,15682.0
2022-10-01T03:37:56.000Z,16000.0
2022-10-01T03:38:56.000Z,16000.0
2022-10-01T03:39:55.000Z,16000.0
2022-10-01T03:40:56.000Z,15278.0
2022-10-01T03:41:56.000Z,15501.0
2022-10-01T03:42:55.000Z,16000.0
2022-10-01T03:43:56.000Z,16000.0
2022-10-01T03:44:55.000Z,16000.0
2022-10-01T03:45:56.000Z,16000.0
2022-10-01T03:46:56.000Z,15136.0
2022-10-01T03:47:55.000Z,13425.0
2022-10-01T03:48:56.000Z,15624.0
2022-10-01T03:49:56.000Z,16000.0
2022-10-01T03:50:55.000Z,16000.0
2022-10-01T03:51:56.000Z,16000.0
2022-10-01T03:52:55.000Z,16000.0
2022-10-01T03:53:56.000Z,16000.0
2022-10-01T03:54:56.000Z,16000.0
2022-10-01T03:55:55.000Z,16000.0
2022-10-01T03:56:56.000Z,15854.0
2022-10-01T03:57:56.000Z,16000.0
2022-10-01T03:58:56.000Z,16000.0
2022-10-01T03:59:56.000Z,16000.0
2022-10-01T04:00:55.000Z,16000.0
2022-10-01T04:01:56.000Z,16000.0
2022-10-01T04:02:56.000Z,16000.0
2022-10-01T04:03:55.000Z,16000.0
2022-10-01T04:04:56.000Z,16000.0
2022-10-01T04:05:55.000Z,16000.0
2022-10-01T04:06:56.000Z,16000.0
2022-10-01T04:07:56.000Z,16000.0
2022-10-01T04:08:55.000Z,16000.0
2022-10-01T04:09:56.000Z,16000.0
2022-10-01T04:10:55.000Z,15350.0
2022-10-01T04:11:56.000Z,16000.0
2022-10-01T04:12:56.000Z,15051.0
2022-10-01T04:13:55.000Z,16000.0
2022-10-01T04:14:56.000Z,16000.0
2022-10-01T04:15:56.000Z,16000.0
2022-10-01T04:16:55.000Z,16000.0
2022-10-01T04:17:56.000Z,16000.0
2022-10-01T04:18:55.000Z,16000.0
2022-10-01T04:19:56.000Z,15931.0
2022-10-01T04:20:56.000Z,14850.0
2022-10-01T04:21:55.000Z,14482.0
2022-10-01T04:22:56.000Z,15586.0
2022-10-01T04:23:55.000Z,16000.0
2022-10-01T04:24:56.000Z,16000.0
2022-10-01T04:25:56.000Z,16000.0
2022-10-01T04:26:55.000Z,16000.0
2022-10-01T04:27:56.000Z,16000.0
2022-10-01T04:28:56.000Z,16000.0
2022-10-01T04:29:55.000Z,16000.0
2022-10-01T04:30:56.000Z,16000.0
2022-10-01T04:31:55.000Z,16000.0
2022-10-01T04:32:56.000Z,16000.0
2022-10-01T04:33:56.000Z,16000.0
2022-10-01T04:34:55.000Z,16000.0
2022-10-01T04:35:56.000Z,16000.0
2022-10-01T04:36:55.000Z,16000.0
2022-10-01T04:37:56.000Z,16000.0
2022-10-01T04:38:56.000Z,16000.0
2022-10-01T04:39:55.000Z,16000.0
2022-10-01T04:40:56.000Z,14941.0
2022-10-01T04:41:56.000Z,15861.0
2022-10-01T04:42:55.000Z,16000.0
2022-10-01T04:43:56.000Z,15389.0
2022-10-01T04:44:55.000Z,16000.0
2022-10-01T04:45:56.000Z,15131.0
2022-10-01T04:46:56.000Z,14844.0
2022-10-01T04:47:55.000Z,12547.0
2022-10-01T04:48:56.000Z,11539.0
2022-10-01T04:49:55.000Z,11100.0
2022-10-01T04:50:56.000Z,12038.0
2022-10-01T04:51:56.000Z,11549.0
2022-10-01T04:52:55.000Z,10623.0
2022-10-01T04:53:56.000Z,10997.0
2022-10-01T04:54:56.000Z,11143.0
2022-10-01T04:55:55.000Z,11067.0
2022-10-01T04:56:56.000Z,11403.0
2022-10-01T04:57:55.000Z,13349.0
2022-10-01T04:58:56.000Z,11911.0
2022-10-01T04:59:56.000Z,10409.0
2022-10-01T05:00:55.000Z,9571.0
2022-10-01T05:01:56.000Z,10136.0
2022-10-01T05:02:56.000Z,10432.0
2022-10-01T05:03:55.000Z,11575.0
2022-10-01T05:04:56.000Z,11836.0
2022-10-01T05:05:55.000Z,12609.0
2022-10-01T05:06:56.000Z,12294.0
2022-10-01T05:07:56.000Z,13492.0
2022-10-01T05:08:55.000Z,12846.0
2022-10-01T05:09:56.000Z,14696.0
2022-10-01T05:10:55.000Z,12660.0
2022-10-01T05:11:56.000Z,10514.0
2022-10-01T05:12:56.000Z,10052.0
2022-10-01T05:13:55.000Z,9576.0
2022-10-01T05:14:56.000Z,10695.0
2022-10-01T05:15:56.000Z,11514.0
2022-10-01T05:16:55.000Z,12603.0
2022-10-01T05:17:56.000Z,14641.0
2022-10-01T05:18:55.000Z,16000.0
2022-10-01T05:19:56.000Z,16000.0
2022-10-01T05:20:56.000Z,16000.0
2022-10-01T05:21:55.000Z,16000.0
2022-10-01T05:22:56.000Z,16000.0
2022-10-01T05:23:55.000Z,16000.0
2022-10-01T05:24:56.000Z,16000.0
2022-10-01T05:25:56.000Z,16000.0
2022-10-01T05:26:55.000Z,16000.0
2022-10-01T05:27:56.000Z,16000.0
2022-10-01T05:28:56.000Z,16000.0
2022-10-01T05:29:55.000Z,16000.0
2022-10-01T05:30:56.000Z,16000.0
2022-10-01T05:31:55.000Z,16000.0
2022-10-01T05:32:56.000Z,16000.0
2022-10-01T05:33:56.000Z,16000.0
2022-10-01T05:34:55.000Z,16000.0
2022-10-01T05:35:56.000Z,16000.0
2022-10-01T05:36:55.000Z,16000.0
2022-10-01T05:37:56.000Z,16000.0
2022-10-01T05:38:56.000Z,16000.0
2022-10-01T05:39:55.000Z,16000.0
2022-10-01T05:40:56.000Z,16000.0
2022-10-01T05:41:56.000Z,16000.0
2022-10-01T05:42:55.000Z,16000.0
2022-10-01T05:43:56.000Z,16000.0
2022-10-01T05:44:55.000Z,16000.0
2022-10-01T05:45:56.000Z,16000.0
2022-10-01T05:46:56.000Z,16000.0
2022-10-01T05:47:55.000Z,16000.0
2022-10-01T05:48:56.000Z,16000.0
2022-10-01T05:49:55.000Z,16000.0
2022-10-01T05:50:55.000Z,16000.0
2022-10-01T05:51:56.000Z,16000.0
2022-10-01T05:52:55.000Z,16000.0
2022-10-01T05:53:56.000Z,16000.0
2022-10-01T05:54:56.000Z,16000.0
2022-10-01T05:55:55.000Z,16000.0
2022-10-01T05:56:56.000Z,16000.0
2022-10-01T05:57:55.000Z,16000.0
2022-10-01T05:58:56.000Z,16000.0
2022-10-01T05:59:56.000Z,16000.0
2022-10-01T06:00:55.000Z,16000.0
2022-10-01T06:01:56.000Z,16000.0
2022-10-01T06:02:56.000Z,16000.0
2022-10-01T06:03:55.000Z,16000.0
2022-10-01T06:04:56.000Z,16000.0
2022-10-01T06:05:55.000Z,16000.0
2022-10-01T06:06:56.000Z,16000.0
2022-10-01T06:07:56.000Z,16000.0
2022-10-01T06:08:55.000Z,16000.0
2022-10-01T06:09:56.000Z,16000.0
2022-10-01T06:10:55.000Z,16000.0
2022-10-01T06:11:55.000Z,16000.0
2022-10-01T06:12:56.000Z,16000.0
2022-10-01T06:13:55.000Z,16000.0
2022-10-01T06:14:56.000Z,16000.0
2022-10-01T06:15:56.000Z,16000.0
2022-10-01T06:16:55.000Z,16000.0
2022-10-01T06:17:56.000Z,16000.0
2022-10-01T06:18:55.000Z,16000.0
2022-10-01T06:19:56.000Z,16000.0
2022-10-01T06:20:56.000Z,16000.0
2022-10-01T06:21:55.000Z,16000.0
2022-10-01T06:22:56.000Z,16000.0
2022-10-01T06:23:55.000Z,16000.0
2022-10-01T06:24:56.000Z,16000.0
2022-10-01T06:25:56.000Z,16000.0
2022-10-01T06:26:55.000Z,16000.0
2022-10-01T06:27:56.000Z,16000.0
2022-10-01T06:28:56.000Z,16000.0
2022-10-01T06:29:55.000Z,16000.0
2022-10-01T06:30:56.000Z,16000.0
2022-10-01T06:31:55.000Z,16000.0
2022-10-01T06:32:56.000Z,16000.0
2022-10-01T06:33:56.000Z,16000.0
2022-10-01T06:34:55.000Z,16000.0
2022-10-01T06:35:56.000Z,16000.0
2022-10-01T06:36:55.000Z,16000.0
2022-10-01T06:37:55.000Z,16000.0
2022-10-01T06:38:56.000Z,16000.0
2022-10-01T06:39:55.000Z,16000.0
2022-10-01T06:40:56.000Z,16000.0
2022-10-01T06:41:56.000Z,16000.0
2022-10-01T06:42:55.000Z,16000.0
2022-10-01T06:43:56.000Z,16000.0
2022-10-01T06:44:55.000Z,16000.0
2022-10-01T06:45:56.000Z,16000.0
2022-10-01T06:46:56.000Z,16000.0
2022-10-01T06:47:55.000Z,16000.0
2022-10-01T06:48:56.000Z,16000.0
2022-10-01T06:49:56.000Z,16000.0
2022-10-01T06:50:55.000Z,16000.0
2022-10-01T06:51:56.000Z,16000.0
2022-10-01T06:52:55.000Z,16000.0
2022-10-01T06:53:56.000Z,16000.0
2022-10-01T06:54:56.000Z,16000.0
2022-10-01T06:55:55.000Z,16000.0
2022-10-01T06:56:56.000Z,16000.0
2022-10-01T06:57:56.000Z,16000.0
2022-10-01T06:58:55.000Z,16000.0
2022-10-01T06:59:56.000Z,16000.0
2022-10-01T07:00:55.000Z,16000.0
2022-10-01T07:01:55.000Z,16000.0
2022-10-01T07:02:56.000Z,16000.0
2022-10-01T07:03:55.000Z,16000.0
2022-10-01T07:04:56.000Z,16000.0
2022-10-01T07:05:56.000Z,16000.0
2022-10-01T07:06:55.000Z,16000.0
2022-10-01T07:07:56.000Z,16000.0
2022-10-01T07:08:55.000Z,16000.0
2022-10-01T07:09:56.000Z,16000.0
2022-10-01T07:10:56.000Z,16000.0
2022-10-01T07:11:55.000Z,16000.0
2022-10-01T07:12:56.000Z,16000.0
2022-10-01T07:13:55.000Z,16000.0
2022-10-01T07:14:55.000Z,16000.0
2022-10-01T07:15:56.000Z,16000.0
2022-10-01T07:16:55.000Z,15533.0
2022-10-01T07:17:56.000Z,14053.0
2022-10-01T07:18:56.000Z,13766.0
2022-10-01T07:19:55.000Z,14186.0
2022-10-01T07:20:56.000Z,16000.0
2022-10-01T07:21:55.000Z,13864.0
2022-10-01T07:22:56.000Z,14736.0
2022-10-01T07:23:56.000Z,16000.0
2022-10-01T07:24:55.000Z,16000.0
2022-10-01T07:25:56.000Z,16000.0
2022-10-01T07:26:56.000Z,15483.0
2022-10-01T07:27:55.000Z,14826.0
2022-10-01T07:28:56.000Z,13285.0
2022-10-01T07:29:55.000Z,13702.0
2022-10-01T07:30:56.000Z,13972.0
2022-10-01T07:31:56.000Z,14220.0
2022-10-01T07:32:55.000Z,14206.0
2022-10-01T07:33:56.000Z,15274.0
2022-10-01T07:34:55.000Z,13152.0
2022-10-01T07:35:56.000Z,10845.0
2022-10-01T07:36:56.000Z,10883.0
2022-10-01T07:37:55.000Z,11205.0
2022-10-01T07:38:56.000Z,10029.0
2022-10-01T07:39:55.000Z,10781.0
2022-10-01T07:40:55.000Z,11769.0
2022-10-01T07:41:56.000Z,11952.0
2022-10-01T07:42:55.000Z,11897.0
2022-10-01T07:43:56.000Z,15518.0
2022-10-01T07:44:56.000Z,16000.0
2022-10-01T07:45:55.000Z,16000.0
2022-10-01T07:46:56.000Z,14531.0
2022-10-01T07:47:55.000Z,14668.0
2022-10-01T07:48:56.000Z,16000.0
2022-10-01T07:49:56.000Z,16000.0
2022-10-01T07:50:55.000Z,16000.0
2022-10-01T07:51:56.000Z,16000.0
2022-10-01T07:52:56.000Z,16000.0
2022-10-01T07:53:55.000Z,16000.0
2022-10-01T07:54:56.000Z,16000.0
2022-10-01T07:55:55.000Z,16000.0
2022-10-01T07:56:55.000Z,16000.0
2022-10-01T07:57:56.000Z,16000.0
2022-10-01T07:58:55.000Z,16000.0
2022-10-01T07:59:56.000Z,15323.0
2022-10-01T08:00:56.000Z,16000.0
2022-10-01T08:01:55.000Z,15012.0
2022-10-01T08:02:56.000Z,14180.0
2022-10-01T08:03:56.000Z,14279.0
2022-10-01T08:04:55.000Z,13020.0
2022-10-01T08:05:56.000Z,13102.0
2022-10-01T08:06:55.000Z,14365.0
2022-10-01T08:07:56.000Z,15288.0
2022-10-01T08:08:56.000Z,15114.0
2022-10-01T08:09:55.000Z,15152.0
2022-10-01T08:10:56.000Z,16000.0
2022-10-01T08:11:55.000Z,16000.0
2022-10-01T08:12:55.000Z,15671.0
2022-10-01T08:13:56.000Z,13425.0
2022-10-01T08:14:55.000Z,13331.0
2022-10-01T08:15:56.000Z,14123.0
2022-10-01T08:16:56.000Z,15423.0
2022-10-01T08:17:55.000Z,14592.0
2022-10-01T08:18:56.000Z,11740.0
2022-10-01T08:19:55.000Z,12188.0
2022-10-01T08:20:56.000Z,13358.0
2022-10-01T08:21:56.000Z,13672.0
2022-10-01T08:22:55.000Z,14649.0
2022-10-01T08:23:56.000Z,15339.0
2022-10-01T08:24:55.000Z,16000.0
2022-10-01T08:25:56.000Z,16000.0
2022-10-01T08:26:56.000Z,15020.0
2022-10-01T08:27:55.000Z,13189.0
2022-10-01T08:28:56.000Z,12731.0
2022-10-01T08:29:56.000Z,13365.0
2022-10-01T08:30:55.000Z,13477.0
2022-10-01T08:31:56.000Z,13524.0
2022-10-01T08:32:55.000Z,14171.0
2022-10-01T08:33:56.000Z,13604.0
2022-10-01T08:34:56.000Z,13040.0
2022-10-01T08:35:55.000Z,11897.0
2022-10-01T08:36:56.000Z,12047.0
2022-10-01T08:37:55.000Z,12406.0
2022-10-01T08:38:55.000Z,12809.0
2022-10-01T08:39:56.000Z,14283.0
2022-10-01T08:40:55.000Z,13759.0
2022-10-01T08:41:56.000Z,13544.0
2022-10-01T08:42:56.000Z,14832.0
2022-10-01T08:43:55.000Z,13834.0
2022-10-01T08:44:56.000Z,12423.0
2022-10-01T08:45:55.000Z,12358.0
2022-10-01T08:46:56.000Z,14130.0
2022-10-01T08:47:56.000Z,15985.0
2022-10-01T08:48:55.000Z,15315.0
2022-10-01T08:49:56.000Z,14628.0
2022-10-01T08:50:55.000Z,15601.0
2022-10-01T08:51:55.000Z,14879.0
2022-10-01T08:52:56.000Z,15219.0
2022-10-01T08:53:55.000Z,16000.0
2022-10-01T08:54:56.000Z,14668.0
2022-10-01T08:55:56.000Z,14634.0
2022-10-01T08:56:55.000Z,15759.0
2022-10-01T08:57:56.000Z,16000.0
2022-10-01T08:58:56.000Z,16000.0
2022-10-01T08:59:55.000Z,16000.0
2022-10-01T09:00:56.000Z,16000.0
2022-10-01T09:01:55.000Z,16000.0
2022-10-01T09:02:55.000Z,16000.0
2022-10-01T09:03:56.000Z,16000.0
2022-10-01T09:04:55.000Z,16000.0
2022-10-01T09:05:56.000Z,16000.0
2022-10-01T09:06:56.000Z,16000.0
2022-10-01T09:07:55.000Z,16000.0
2022-10-01T09:08:56.000Z,16000.0
2022-10-01T09:09:55.000Z,16000.0
2022-10-01T09:10:56.000Z,16000.0
2022-10-01T09:11:56.000Z,16000.0
2022-10-01T09:12:55.000Z,16000.0
2022-10-01T09:13:56.000Z,16000.0
2022-10-01T09:14:55.000Z,16000.0
2022-10-01T09:15:55.000Z,16000.0
2022-10-01T09:16:56.000Z,16000.0
2022-10-01T09:17:55.000Z,16000.0
2022-10-01T09:18:56.000Z,16000.0
2022-10-01T09:19:56.000Z,16000.0
2022-10-01T09:20:55.000Z,16000.0
2022-10-01T09:21:56.000Z,16000.0
2022-10-01T09:22:55.000Z,16000.0
2022-10-01T09:23:56.000Z,16000.0
2022-10-01T09:24:56.000Z,16000.0
2022-10-01T09:25:55.000Z,16000.0
2022-10-01T09:26:56.000Z,16000.0
2022-10-01T09:27:55.000Z,16000.0
2022-10-01T09:28:55.000Z,16000.0
2022-10-01T09:29:56.000Z,16000.0
2022-10-01T09:30:55.000Z,16000.0
2022-10-01T09:31:56.000Z,16000.0
2022-10-01T09:32:56.000Z,16000.0
2022-10-01T09:33:55.000Z,16000.0
2022-10-01T09:34:56.000Z,16000.0
2022-10-01T09:35:55.000Z,16000.0
2022-10-01T09:36:56.000Z,16000.0
2022-10-01T09:37:56.000Z,16000.0
2022-10-01T09:38:55.000Z,16000.0
2022-10-01T09:39:56.000Z,16000.0
2022-10-01T09:40:55.000Z,16000.0
2022-10-01T09:41:55.000Z,16000.0
2022-10-01T09:42:56.000Z,16000.0
2022-10-01T09:43:55.000Z,16000.0
2022-10-01T09:44:56.000Z,16000.0
2022-10-01T09:45:56.000Z,16000.0
2022-10-01T09:46:55.000Z,16000.0
2022-10-01T09:47:56.000Z,16000.0
2022-10-01T09:48:55.000Z,16000.0
2022-10-01T09:49:56.000Z,16000.0
2022-10-01T09:50:56.000Z,16000.0
2022-10-01T09:51:55.000Z,16000.0
2022-10-01T09:52:56.000Z,16000.0
2022-10-01T09:53:55.000Z,16000.0
2022-10-01T09:54:55.000Z,16000.0
2022-10-01T09:55:56.000Z,16000.0
2022-10-01T09:56:55.000Z,16000.0
2022-10-01T09:57:55.000Z,16000.0
2022-10-01T09:58:56.000Z,16000.0
2022-10-01T09:59:55.000Z,16000.0
2022-10-01T10:00:56.000Z,16000.0
2022-10-01T10:01:56.000Z,16000.0
2022-10-01T10:02:55.000Z,16000.0
2022-10-01T10:03:56.000Z,16000.0
2022-10-01T10:04:55.000Z,16000.0
2022-10-01T10:05:55.000Z,16000.0
2022-10-01T10:06:56.000Z,16000.0
2022-10-01T10:07:55.000Z,16000.0
2022-10-01T10:08:56.000Z,16000.0
2022-10-01T10:09:56.000Z,15886.0
2022-10-01T10:10:55.000Z,16000.0
2022-10-01T10:11:56.000Z,16000.0
2022-10-01T10:12:55.000Z,15752.0
2022-10-01T10:13:55.000Z,16000.0
2022-10-01T10:14:56.000Z,16000.0
2022-10-01T10:15:55.000Z,16000.0
2022-10-01T10:16:56.000Z,16000.0
2022-10-01T10:17:56.000Z,16000.0
2022-10-01T10:18:55.000Z,16000.0
2022-10-01T10:19:56.000Z,16000.0
2022-10-01T10:20:55.000Z,16000.0
2022-10-01T10:21:56.000Z,16000.0
2022-10-01T10:22:56.000Z,16000.0
2022-10-01T10:23:55.000Z,16000.0
2022-10-01T10:24:56.000Z,16000.0
2022-10-01T10:25:55.000Z,16000.0
2022-10-01T10:26:55.000Z,16000.0
2022-10-01T10:27:56.000Z,16000.0
2022-10-01T10:28:55.000Z,16000.0
2022-10-01T10:29:56.000Z,16000.0
2022-10-01T10:30:55.000Z,16000.0
2022-10-01T10:31:55.000Z,16000.0
2022-10-01T10:32:56.000Z,16000.0
2022-10-01T10:33:55.000Z,16000.0
2022-10-01T10:34:56.000Z,16000.0
2022-10-01T10:35:56.000Z,16000.0
2022-10-01T10:36:55.000Z,16000.0
2022-10-01T10:37:56.000Z,16000.0
2022-10-01T10:38:55.000Z,16000.0
2022-10-01T10:39:55.000Z,16000.0
2022-10-01T10:40:56.000Z,16000.0
2022-10-01T10:41:55.000Z,16000.0
2022-10-01T10:42:56.000Z,16000.0
2022-10-01T10:43:56.000Z,16000.0
2022-10-01T10:44:55.000Z,16000.0
2022-10-01T10:45:56.000Z,16000.0
2022-10-01T10:46:55.000Z,16000.0
2022-10-01T10:47:56.000Z,16000.0
2022-10-01T10:48:56.000Z,16000.0
2022-10-01T10:49:55.000Z,16000.0
2022-10-01T10:50:56.000Z,16000.0
2022-10-01T10:51:55.000Z,16000.0
2022-10-01T10:52:55.000Z,16000.0
2022-10-01T10:53:56.000Z,16000.0
2022-10-01T10:54:55.000Z,16000.0
2022-10-01T10:55:56.000Z,16000.0
2022-10-01T10:56:56.000Z,16000.0
2022-10-01T10:57:55.000Z,16000.0
2022-10-01T10:58:56.000Z,16000.0
2022-10-01T10:59:56.000Z,16000.0
2022-10-01T11:00:55.000Z,16000.0
2022-10-01T11:01:56.000Z,16000.0
2022-10-01T11:02:55.000Z,16000.0
2022-10-01T11:03:55.000Z,16000.0
2022-10-01T11:04:56.000Z,16000.0
2022-10-01T11:05:55.000Z,16000.0
2022-10-01T11:06:56.000Z,16000.0
2022-10-01T11:07:56.000Z,16000.0
2022-10-01T11:08:55.000Z,16000.0
2022-10-01T11:09:56.000Z,16000.0
2022-10-01T11:10:55.000Z,16000.0
2022-10-01T11:11:55.000Z,16000.0
2022-10-01T11:12:56.000Z,16000.0
2022-10-01T11:13:55.000Z,16000.0
2022-10-01T11:14:56.000Z,16000.0
2022-10-01T11:15:55.000Z,16000.0
2022-10-01T11:16:55.000Z,16000.0
2022-10-01T11:17:56.000Z,16000.0
2022-10-01T11:18:55.000Z,16000.0
2022-10-01T11:19:56.000Z,16000.0
2022-10-01T11:20:56.000Z,16000.0
2022-10-01T11:21:55.000Z,16000.0
2022-10-01T11:22:56.000Z,16000.0
2022-10-01T11:23:55.000Z,16000.0
2022-10-01T11:24:56.000Z,16000.0
2022-10-01T11:25:56.000Z,16000.0
2022-10-01T11:26:55.000Z,16000.0
2022-10-01T11:27:56.000Z,16000.0
2022-10-01T11:28:55.000Z,16000.0
2022-10-01T11:29:55.000Z,16000.0
2022-10-01T11:30:56.000Z,16000.0
2022-10-01T11:31:55.000Z,16000.0
2022-10-01T11:32:56.000Z,16000.0
2022-10-01T11:33:56.000Z,16000.0
2022-10-01T11:34:55.000Z,16000.0
2022-10-01T11:35:56.000Z,16000.0
2022-10-01T11:36:55.000Z,16000.0
2022-10-01T11:37:55.000Z,16000.0
2022-10-01T11:38:56.000Z,16000.0
2022-10-01T11:39:55.000Z,16000.0
2022-10-01T11:40:56.000Z,16000.0
2022-10-01T11:41:55.000Z,16000.0
2022-10-01T11:42:55.000Z,16000.0
2022-10-01T11:43:56.000Z,16000.0
2022-10-01T11:44:55.000Z,16000.0
2022-10-01T11:45:56.000Z,16000.0
2022-10-01T11:46:56.000Z,16000.0
2022-10-01T11:47:55.000Z,16000.0
2022-10-01T11:48:56.000Z,16000.0
2022-10-01T11:49:55.000Z,16000.0
2022-10-01T11:50:55.000Z,16000.0
2022-10-01T11:51:56.000Z,16000.0
2022-10-01T11:52:55.000Z,16000.0
2022-10-01T11:53:56.000Z,16000.0
2022-10-01T11:54:55.000Z,16000.0
2022-10-01T11:55:55.000Z,16000.0
2022-10-01T11:56:56.000Z,16000.0
2022-10-01T11:57:55.000Z,16000.0
2022-10-01T11:58:55.000Z,16000.0
2022-10-01T11:59:56.000Z,16000.0
2022-10-01T12:00:55.000Z,16000.0
2022-10-01T12:01:55.000Z,16000.0
2022-10-01T12:02:56.000Z,16000.0
2022-10-01T12:03:55.000Z,16000.0
2022-10-01T12:04:56.000Z,16000.0
2022-10-01T12:05:55.000Z,16000.0